Warren, VT (05674)

2:23 PM EST on February 27, 2017 (GMT -0500)
Old Roxbury Rd | | Change Station

Elev 1870 ft 44.11 °N, 72.80 °W | Updated 5 minutes ago

Overcast
Overcast
40.9 °F
Feels Like 38 °F
N
5.0
Wind Variable Wind from West
Gusts 9.0 mph

Today
High -- | Low -- °F
--% Chance of Precip.
Yesterday
High -- | Low -- °F
Precip. -- in
Pressure 30.19 in
Visibility 10.0 miles
Clouds Overcast 6500 ft
Windchill 38 °F
Dew Point 26 °F
Humidity 56%
Rainfall 0.00 in
Snow Depth Not available.
6:31 AM 5:37 PM
New Moon, 2% visible
METAR K6B0 271855Z AUTO 18007KT 10SM OVC065 07/M15 A3019 RMK AO2 T00701150
Pressure 30.19 in
Visibility 10.0 miles
Clouds Overcast 6500 ft
Windchill 38 °F
Dew Point 26 °F
Humidity 56%
Rainfall 0.00 in
Snow Depth Not available.
6:31 AM 5:37 PM
New Moon, 2% visible
METAR K6B0 271855Z AUTO 18007KT 10SM OVC065 07/M15 A3019 RMK AO2 T00701150

Get Your Daily Forecast Email!

Thanks for signing up!

Be on the lookout for a verification email in your inbox.

You'll start receiving the daily forecast at 8 AM.

×

10-Day Weather Forecast

Almanac

Astronomy

Feb. 27, 2017 Rise Set
Actual Time
Civil Twilight
Nautical Twilight
Astronomical Twilight
Moon
Length of Visible Light
Length of Day
Tomorrow will be .
, % of the Moon is Illuminated

Today's Extremes

State Highs State Lows

Community

WunderPhotos

Upload Photos

1,962,540 photos uploaded!

WunderBlog® & News

Nearby

Air Quality

  Air Quality AQ Index Pollutant
Not available.

Snow Depth

Station Depth Elevation

Earthquake Activity

City Distance Mag. Time & Date
Minimum magnitude displayed is 2.5.

Coastal Water Temperatures

Place Temperature

Stations

Nearby Weather Stations

Station Location Temp. Windchill Dew Point Humidity Wind Precip. Elev Updated Type
                   

Watches & Warnings

There are currently no watches in effect.